createdAt,value
2024-04-25T00:00:12.080Z,99005.23
2024-04-25T00:02:38.682Z,99005.64
2024-04-25T00:05:05.517Z,99004.34
2024-04-25T00:07:32.042Z,99005.02
2024-04-25T00:09:58.475Z,99006.52
2024-04-25T00:12:24.955Z,99006.11
2024-04-25T00:14:51.484Z,99009.23
2024-04-25T00:17:18.126Z,99006.94
2024-04-25T00:19:44.800Z,99006.04
2024-04-25T00:22:11.291Z,99003.43
2024-04-25T00:24:37.841Z,99000.58
2024-04-25T00:27:04.341Z,99002.77
2024-04-25T00:29:30.834Z,99000.05
2024-04-25T00:31:57.355Z,98996.83
2024-04-25T00:34:23.821Z,98998.77
2024-04-25T00:36:50.325Z,98998.77
2024-04-25T00:39:16.974Z,98997.45
2024-04-25T00:41:43.488Z,98992.34
2024-04-25T00:44:10.222Z,98996.39
2024-04-25T00:46:38.719Z,98995.95
2024-04-25T00:49:07.345Z,98999.23
2024-04-25T00:51:34.558Z,99001.91
2024-04-25T00:54:01.130Z,99001.06
2024-04-25T00:56:28.349Z,98998.67
2024-04-25T00:58:58.322Z,99000.65
2024-04-25T01:01:24.960Z,98998.73
2024-04-25T01:03:53.052Z,98996.02
2024-04-25T01:06:22.102Z,98997.06
2024-04-25T01:08:48.749Z,98992.48
2024-04-25T01:11:15.319Z,98986.72
2024-04-25T01:13:42.094Z,98986.83
2024-04-25T01:16:10.768Z,98983.89
2024-04-25T01:18:37.297Z,98984.19
2024-04-25T01:21:03.926Z,98983.77
2024-04-25T01:23:39.647Z,98983.10
2024-04-25T01:26:11.022Z,98986.54
2024-04-25T01:28:39.655Z,98986.92
2024-04-25T01:31:07.411Z,98988.39
2024-04-25T01:33:36.505Z,98987.82
2024-04-25T01:36:03.813Z,98989.45
2024-04-25T01:38:30.538Z,98988.14
2024-04-25T01:40:57.027Z,98990.54
2024-04-25T01:43:23.787Z,98990.70
2024-04-25T01:45:50.395Z,98991.16
2024-04-25T01:48:17.050Z,98988.44
2024-04-25T01:50:43.641Z,98994.23
2024-04-25T01:53:10.324Z,98992.77
2024-04-25T01:55:37.706Z,98993.52
2024-04-25T01:58:04.334Z,98996.59
2024-04-25T02:00:30.891Z,98999.61
2024-04-25T02:02:57.392Z,99005.59
2024-04-25T02:05:23.922Z,99009.13
2024-04-25T02:07:50.848Z,99009.73
2024-04-25T02:10:17.369Z,99008.36
2024-04-25T02:12:43.936Z,99008.45
2024-04-25T02:15:10.550Z,99009.33
2024-04-25T02:17:41.036Z,99012.73
2024-04-25T02:20:27.609Z,99012.41
2024-04-25T02:23:14.829Z,99014.63
2024-04-25T02:25:41.573Z,99013.02
2024-04-25T02:28:08.929Z,99008.77
2024-04-25T02:30:35.437Z,99011.78
2024-04-25T02:33:01.998Z,99015.88
2024-04-25T02:35:28.531Z,99017.65
2024-04-25T02:37:55.059Z,99017.41
2024-04-25T02:40:21.746Z,99022.97
2024-04-25T02:42:48.276Z,99026.17
2024-04-25T02:45:14.726Z,99028.30
2024-04-25T02:47:41.239Z,99034.20
2024-04-25T02:50:11.422Z,99037.00
2024-04-25T02:52:39.463Z,99034.76
2024-04-25T02:55:06.551Z,99030.45
2024-04-25T02:57:33.304Z,99036.48
2024-04-25T02:59:59.753Z,99039.45
2024-04-25T03:02:26.927Z,99044.04
2024-04-25T03:04:53.462Z,99044.52
2024-04-25T03:07:19.886Z,99043.45
2024-04-25T03:09:46.371Z,99043.38
2024-04-25T03:12:12.935Z,99044.99
2024-04-25T03:14:39.560Z,99047.59
2024-04-25T03:17:06.114Z,99044.96
2024-04-25T03:19:32.604Z,99050.49
2024-04-25T03:21:59.104Z,99054.98
2024-04-25T03:24:26.237Z,99055.65
2024-04-25T03:26:52.733Z,99053.63
2024-04-25T03:29:19.181Z,99058.77
2024-04-25T03:31:45.924Z,99061.70
2024-04-25T03:34:12.421Z,99062.34
2024-04-25T03:36:38.911Z,99062.60
2024-04-25T03:39:05.352Z,99071.04
2024-04-25T03:41:33.663Z,99072.00
2024-04-25T03:44:00.285Z,99078.55
2024-04-25T03:46:26.801Z,99080.35
2024-04-25T03:48:53.361Z,99081.87
2024-04-25T03:51:19.858Z,99084.79
2024-04-25T03:53:46.409Z,99090.74
2024-04-25T03:56:13.032Z,99092.23
2024-04-25T03:58:40.815Z,99093.05
2024-04-25T04:01:07.389Z,99092.81
2024-04-25T04:03:33.857Z,99094.79
2024-04-25T04:06:00.332Z,99099.79
2024-04-25T04:08:27.434Z,99100.48
2024-04-25T04:10:54.040Z,99102.12
2024-04-25T04:13:20.543Z,99108.73
2024-04-25T04:15:47.108Z,99110.52
2024-04-25T04:18:13.765Z,99115.34
2024-04-25T04:20:41.060Z,99120.58
2024-04-25T04:23:07.597Z,99121.18
2024-04-25T04:25:34.174Z,99123.96
2024-04-25T04:28:00.703Z,99125.64
2024-04-25T04:30:27.207Z,99131.27
2024-04-25T04:32:53.893Z,99127.70
2024-04-25T04:35:20.516Z,99126.67
2024-04-25T04:37:47.078Z,99129.41
2024-04-25T04:40:13.772Z,99131.55
2024-04-25T04:45:09.819Z,99135.94
2024-04-25T04:47:37.167Z,99139.55
2024-04-25T04:50:03.823Z,99139.88
2024-04-25T04:52:33.295Z,99133.45
2024-04-25T04:54:59.865Z,99133.02
2024-04-25T04:57:26.466Z,99134.20
2024-04-25T04:59:53.045Z,99141.09
2024-04-25T05:02:19.672Z,99142.80
2024-04-25T05:04:48.491Z,99141.84
2024-04-25T05:07:15.029Z,99142.46
2024-04-25T05:09:41.604Z,99143.64
2024-04-25T05:12:08.042Z,99145.92
2024-04-25T05:14:34.732Z,99152.35
2024-04-25T05:17:01.272Z,99153.52
2024-04-25T05:19:27.762Z,99157.48
2024-04-25T05:21:56.418Z,99158.54
2024-04-25T05:24:22.983Z,99161.27
2024-04-25T05:26:49.500Z,99161.40
2024-04-25T05:29:16.055Z,99164.48
2024-04-25T05:31:42.572Z,99163.87
2024-04-25T05:34:09.166Z,99169.23
2024-04-25T05:36:35.780Z,99168.96
2024-04-25T05:39:02.352Z,99172.77
2024-04-25T05:41:28.927Z,99169.40
2024-04-25T05:43:55.450Z,99166.60
2024-04-25T05:46:22.618Z,99171.56
2024-04-25T05:48:49.162Z,99173.38
2024-04-25T05:51:15.861Z,99175.91
2024-04-25T05:53:42.602Z,99181.38
2024-04-25T05:56:09.317Z,99183.55
2024-04-25T05:58:37.211Z,99185.19
2024-04-25T06:01:04.243Z,99189.70
2024-04-25T06:03:30.818Z,99192.60
2024-04-25T06:05:57.347Z,99196.95
2024-04-25T06:08:23.873Z,99197.99
2024-04-25T06:10:50.426Z,99196.77
2024-04-25T06:13:18.800Z,99199.73
2024-04-25T06:15:45.363Z,99201.18
2024-04-25T06:18:12.164Z,99200.88
2024-04-25T06:20:39.007Z,99202.46
2024-04-25T06:23:06.480Z,99204.88
2024-04-25T06:25:33.123Z,99209.13
2024-04-25T06:27:59.668Z,99208.94
2024-04-25T06:30:26.294Z,99213.17
2024-04-25T06:32:53.156Z,99216.38
2024-04-25T06:35:19.822Z,99221.39
2024-04-25T06:37:47.835Z,99224.36
2024-04-25T06:40:15.032Z,99228.38
2024-04-25T06:42:41.628Z,99228.91
2024-04-25T06:45:08.288Z,99232.86
2024-04-25T06:47:35.010Z,99233.75
2024-04-25T06:50:01.628Z,99235.52
2024-04-25T06:52:28.377Z,99236.45
2024-04-25T06:54:54.945Z,99238.12
2024-04-25T06:57:21.545Z,99243.34
2024-04-25T06:59:51.302Z,99246.81
2024-04-25T07:02:20.236Z,99247.21
2024-04-25T07:04:47.485Z,99244.33
2024-04-25T07:07:13.970Z,99246.88
2024-04-25T07:09:40.564Z,99246.77
2024-04-25T07:12:07.623Z,99247.93
2024-04-25T07:14:34.221Z,99249.15
2024-04-25T07:17:00.886Z,99249.67
2024-04-25T07:19:27.337Z,99252.35
2024-04-25T07:21:54.194Z,99259.79
2024-04-25T07:24:22.264Z,99263.14
2024-04-25T07:26:49.114Z,99264.55
2024-04-25T07:29:16.307Z,99266.63
2024-04-25T07:31:42.910Z,99269.68
2024-04-25T07:34:10.051Z,99270.81
2024-04-25T07:36:37.201Z,99270.10
2024-04-25T07:39:05.003Z,99274.77
2024-04-25T07:41:33.130Z,99273.73
2024-04-25T07:43:59.812Z,99277.61
2024-04-25T07:47:19.880Z,99277.77
2024-04-25T07:49:46.452Z,99277.58
2024-04-25T07:52:13.038Z,99280.31
2024-04-25T07:54:39.550Z,99279.83
2024-04-25T07:57:06.228Z,99280.47
2024-04-25T07:59:32.738Z,99282.64
2024-04-25T08:01:59.334Z,99280.18
2024-04-25T08:04:26.025Z,99279.77
2024-04-25T08:06:52.645Z,99281.35
2024-04-25T08:09:19.263Z,99282.02
2024-04-25T08:11:45.834Z,99282.10
2024-04-25T08:14:12.529Z,99283.53
2024-04-25T08:16:39.095Z,99285.33
2024-04-25T08:19:05.791Z,99286.24
2024-04-25T08:21:32.338Z,99290.00
2024-04-25T08:23:58.736Z,99289.24
2024-04-25T08:26:25.228Z,99288.45
2024-04-25T08:28:51.855Z,99288.33
2024-04-25T08:31:18.363Z,99286.71
2024-04-25T08:33:45.280Z,99286.88
2024-04-25T08:36:11.950Z,99283.63
2024-04-25T08:38:40.808Z,99287.60
2024-04-25T08:41:07.810Z,99283.87
2024-04-25T08:43:43.203Z,99281.15
2024-04-25T08:46:17.151Z,99285.55
2024-04-25T08:48:45.473Z,99288.71
2024-04-25T08:51:14.404Z,99289.27
2024-04-25T08:53:42.184Z,99291.98
2024-04-25T08:56:08.937Z,99291.61
2024-04-25T08:58:35.584Z,99289.25
2024-04-25T09:01:03.814Z,99293.32
2024-04-25T09:03:30.633Z,99293.55
2024-04-25T09:05:57.610Z,99297.89
2024-04-25T09:08:24.496Z,99300.83
2024-04-25T09:10:51.236Z,99301.75
2024-04-25T09:13:19.681Z,99305.30
2024-04-25T09:15:46.286Z,99305.29
2024-04-25T09:18:12.909Z,99304.08
2024-04-25T09:20:39.771Z,99304.20
2024-04-25T09:23:06.910Z,99300.80
2024-04-25T09:25:33.810Z,99300.38
2024-04-25T09:28:03.434Z,99302.85
2024-04-25T09:30:32.147Z,99304.90
2024-04-25T09:32:58.860Z,99297.34
2024-04-25T09:35:25.591Z,99305.33
2024-04-25T09:37:52.971Z,99306.91
2024-04-25T09:40:19.503Z,99305.43
2024-04-25T09:42:46.782Z,99305.66
2024-04-25T09:45:13.938Z,99306.99
2024-04-25T09:47:46.122Z,99308.91
2024-04-25T09:50:29.385Z,99312.17
2024-04-25T09:53:04.725Z,99309.05
2024-04-25T09:55:39.226Z,99310.52
2024-04-25T09:58:28.265Z,99307.41
2024-04-25T10:00:56.235Z,99310.63
2024-04-25T10:03:23.539Z,99316.61
2024-04-25T10:05:50.631Z,99317.34
2024-04-25T10:08:17.311Z,99317.00
2024-04-25T10:10:44.767Z,99317.20
2024-04-25T10:13:17.548Z,99317.34
2024-04-25T10:15:49.943Z,99315.03
2024-04-25T10:18:16.658Z,99322.30
2024-04-25T10:20:43.423Z,99319.55
2024-04-25T10:23:12.898Z,99324.70
2024-04-25T10:25:39.615Z,99329.23
2024-04-25T10:28:06.946Z,99328.05
2024-04-25T10:30:36.362Z,99323.23
2024-04-25T10:33:03.418Z,99323.86
2024-04-25T10:35:37.935Z,99327.73
2024-04-25T10:38:04.837Z,99332.75
2024-04-25T10:40:31.376Z,99332.78
2024-04-25T10:43:04.175Z,99338.82
2024-04-25T10:45:33.207Z,99340.52
2024-04-25T10:48:00.605Z,99343.76
2024-04-25T10:50:27.841Z,99348.27
2024-04-25T10:52:56.699Z,99349.40
2024-04-25T10:55:24.240Z,99353.48
2024-04-25T10:57:50.714Z,99355.59
2024-04-25T11:00:17.294Z,99356.58
2024-04-25T11:02:43.884Z,99361.98
2024-04-25T11:05:10.585Z,99364.16
2024-04-25T11:07:37.903Z,99368.52
2024-04-25T11:10:06.211Z,99366.01
2024-04-25T11:12:32.821Z,99367.88
2024-04-25T11:15:00.379Z,99366.94
2024-04-25T11:17:29.114Z,99373.09
2024-04-25T11:20:01.878Z,99375.59
2024-04-25T11:22:36.241Z,99375.95
2024-04-25T11:25:20.204Z,99373.90
2024-04-25T11:27:49.413Z,99371.71
2024-04-25T11:30:16.093Z,99371.02
2024-04-25T11:32:47.297Z,99378.52
2024-04-25T11:35:19.645Z,99375.48
2024-04-25T11:37:46.252Z,99372.41
2024-04-25T11:40:13.103Z,99373.67
2024-04-25T11:42:39.815Z,99374.54
2024-04-25T11:45:07.004Z,99381.58
2024-04-25T11:47:36.412Z,99384.39
2024-04-25T11:50:04.459Z,99385.94
2024-04-25T11:52:30.947Z,99389.99
2024-04-25T11:54:57.411Z,99387.48
2024-04-25T11:57:23.993Z,99387.11
2024-04-25T11:59:50.546Z,99386.60
2024-04-25T12:02:17.168Z,99383.93
2024-04-25T12:04:43.923Z,99380.61
2024-04-25T12:07:10.850Z,99380.14
2024-04-25T12:09:37.384Z,99376.61
2024-04-25T12:12:04.181Z,99379.69
2024-04-25T12:14:30.824Z,99374.98
2024-04-25T12:16:57.469Z,99373.31
2024-04-25T12:19:24.209Z,99378.05
2024-04-25T12:21:51.047Z,99380.56
2024-04-25T12:24:17.534Z,99377.02
2024-04-25T12:26:45.458Z,99379.25
2024-04-25T12:29:12.490Z,99371.75
2024-04-25T12:31:39.245Z,99371.02
2024-04-25T12:34:06.381Z,99365.36
2024-04-25T12:36:34.162Z,99361.02
2024-04-25T12:39:01.181Z,99366.80
2024-04-25T12:41:27.797Z,99370.23
2024-04-25T12:43:56.628Z,99364.94
2024-04-25T12:46:23.075Z,99363.38
2024-04-25T12:48:49.687Z,99366.19
2024-04-25T12:51:16.382Z,99363.46
2024-04-25T12:53:42.835Z,99364.97
2024-04-25T12:56:09.396Z,99363.48
2024-04-25T12:58:41.328Z,99362.04
2024-04-25T13:01:08.905Z,99359.17
2024-04-25T13:03:35.496Z,99356.23
2024-04-25T13:06:02.036Z,99351.20
2024-04-25T13:08:28.607Z,99353.39
2024-04-25T13:10:55.124Z,99346.31
2024-04-25T13:13:23.255Z,99348.19
2024-04-25T13:15:49.995Z,99348.51
2024-04-25T13:18:18.083Z,99348.05
2024-04-25T13:20:45.811Z,99356.17
2024-04-25T13:23:12.319Z,99353.38
2024-04-25T13:25:38.804Z,99354.09
2024-04-25T13:28:05.524Z,99352.66
2024-04-25T13:30:33.374Z,99353.67
2024-04-25T13:33:00.401Z,99349.90
2024-04-25T13:35:27.458Z,99350.32
2024-04-25T13:37:55.363Z,99353.69
2024-04-25T13:40:22.858Z,99352.15
2024-04-25T13:42:49.405Z,99357.48
2024-04-25T13:45:15.956Z,99357.10
2024-04-25T13:47:42.611Z,99358.91
2024-04-25T13:50:09.470Z,99352.52
2024-04-25T13:52:36.027Z,99348.15
2024-04-25T13:55:02.905Z,99341.97
2024-04-25T13:57:31.119Z,99344.33
2024-04-25T13:59:57.576Z,99339.73
2024-04-25T14:02:24.201Z,99341.17
2024-04-25T14:04:50.657Z,99341.41
2024-04-25T14:07:18.197Z,99338.11
2024-04-25T14:09:44.795Z,99333.02
2024-04-25T14:12:11.448Z,99330.35
2024-04-25T14:14:38.091Z,99329.48
2024-04-25T14:17:04.684Z,99333.68
2024-04-25T14:19:31.112Z,99330.33
2024-04-25T14:21:57.624Z,99329.14
2024-04-25T14:24:24.218Z,99324.73
2024-04-25T14:27:09.431Z,99326.84
2024-04-25T14:29:38.593Z,99329.33
2024-04-25T14:32:05.714Z,99323.39
2024-04-25T14:34:32.642Z,99319.42
2024-04-25T14:36:59.201Z,99329.68
2024-04-25T14:39:26.152Z,99334.15
2024-04-25T14:41:52.903Z,99337.05
2024-04-25T14:44:19.528Z,99334.38
2024-04-25T14:46:46.143Z,99331.14
2024-04-25T14:49:12.677Z,99331.42
2024-04-25T14:51:39.186Z,99331.54
2024-04-25T14:54:05.701Z,99332.36
2024-04-25T14:56:32.226Z,99334.72
2024-04-25T14:58:58.716Z,99327.85
2024-04-25T15:01:25.345Z,99327.52
2024-04-25T15:03:51.937Z,99325.59
2024-04-25T15:06:18.427Z,99326.39
2024-04-25T15:08:45.094Z,99326.49
2024-04-25T15:11:12.918Z,99326.11
2024-04-25T15:13:40.317Z,99328.95
2024-04-25T15:16:07.172Z,99323.70
2024-04-25T15:18:33.717Z,99322.30
2024-04-25T15:21:02.385Z,99321.23
2024-04-25T15:23:29.003Z,99320.88
2024-04-25T15:25:55.553Z,99322.34
2024-04-25T15:28:22.179Z,99320.71
2024-04-25T15:30:48.662Z,99319.45
2024-04-25T15:33:15.359Z,99324.00
2024-04-25T15:35:42.039Z,99323.63
2024-04-25T15:38:08.640Z,99323.70
2024-04-25T15:40:35.281Z,99325.70
2024-04-25T15:43:01.905Z,99324.31
2024-04-25T15:45:28.368Z,99323.75
2024-04-25T15:47:55.188Z,99328.18
2024-04-25T15:50:22.151Z,99325.51
2024-04-25T15:52:48.719Z,99328.86
2024-04-25T15:55:15.314Z,99324.84
2024-04-25T15:57:41.848Z,99331.30
2024-04-25T16:00:09.817Z,99338.90
2024-04-25T16:02:36.454Z,99339.84
2024-04-25T16:05:03.126Z,99343.16
2024-04-25T16:07:29.769Z,99341.05
2024-04-25T16:09:56.279Z,99337.71
2024-04-25T16:12:23.064Z,99342.05
2024-04-25T16:14:51.093Z,99339.03
2024-04-25T16:17:17.719Z,99342.84
2024-04-25T16:19:44.324Z,99340.43
2024-04-25T16:22:10.817Z,99344.79
2024-04-25T16:24:37.307Z,99347.25
2024-04-25T16:27:07.203Z,99348.02
2024-04-25T16:29:34.381Z,99348.27
2024-04-25T16:32:00.943Z,99345.89
2024-04-25T16:34:27.473Z,99352.17
2024-04-25T16:36:54.447Z,99352.19
2024-04-25T16:39:21.090Z,99354.23
2024-04-25T16:41:47.654Z,99357.35
2024-04-25T16:44:14.104Z,99358.08
2024-04-25T16:46:41.324Z,99365.83
2024-04-25T16:49:08.024Z,99368.73
2024-04-25T16:51:34.492Z,99367.12
2024-04-25T16:54:00.987Z,99372.34
2024-04-25T16:56:27.663Z,99370.27
2024-04-25T16:58:54.761Z,99367.73
2024-04-25T17:01:21.221Z,99366.35
2024-04-25T17:03:47.817Z,99374.13
2024-04-25T17:06:14.824Z,99383.19
2024-04-25T17:08:41.444Z,99388.67
2024-04-25T17:11:22.607Z,99381.92
2024-04-25T17:13:55.942Z,99381.42
2024-04-25T17:16:22.629Z,99382.21
2024-04-25T17:18:49.664Z,99383.10
2024-04-25T17:21:17.691Z,99388.92
2024-04-25T17:23:45.681Z,99394.30
2024-04-25T17:26:12.281Z,99402.06
2024-04-25T17:28:38.711Z,99410.76
2024-04-25T17:31:05.226Z,99410.38
2024-04-25T17:33:31.885Z,99412.63
2024-04-25T17:35:58.809Z,99420.84
2024-04-25T17:38:25.435Z,99428.90
2024-04-25T17:40:52.022Z,99437.11
2024-04-25T17:43:18.429Z,99444.22
2024-04-25T17:45:44.900Z,99448.45
2024-04-25T17:48:11.584Z,99446.63
2024-04-25T17:50:38.223Z,99451.69
2024-04-25T17:53:06.216Z,99462.63
2024-04-25T17:55:32.764Z,99463.38
2024-04-25T17:57:59.227Z,99472.21
2024-04-25T18:00:25.796Z,99473.01
2024-04-25T18:02:55.138Z,99475.78
2024-04-25T18:05:22.114Z,99487.22
2024-04-25T18:07:48.646Z,99488.67
2024-04-25T18:10:15.224Z,99493.92
2024-04-25T18:12:43.458Z,99496.09
2024-04-25T18:15:10.479Z,99493.55
2024-04-25T18:17:37.222Z,99499.33
2024-04-25T18:20:05.968Z,99500.91
2024-04-25T18:22:34.239Z,99499.95
2024-04-25T18:25:00.744Z,99499.44
2024-04-25T18:27:27.497Z,99499.42
2024-04-25T18:29:54.027Z,99501.28
2024-04-25T18:32:20.573Z,99504.65
2024-04-25T18:34:47.444Z,99503.04
2024-04-25T18:37:14.023Z,99502.98
2024-04-25T18:39:40.531Z,99498.33
2024-04-25T18:42:09.817Z,99502.33
2024-04-25T18:44:36.969Z,99505.36
2024-04-25T18:47:03.960Z,99505.67
2024-04-25T18:49:31.615Z,99508.17
2024-04-25T18:51:59.597Z,99503.36
2024-04-25T18:54:26.941Z,99506.52
2024-04-25T18:56:53.531Z,99505.21
2024-04-25T18:59:20.203Z,99506.62
2024-04-25T19:01:46.816Z,99504.60
2024-04-25T19:04:13.626Z,99507.10
2024-04-25T19:06:43.135Z,99506.40
2024-04-25T19:09:12.355Z,99507.82
2024-04-25T19:11:40.428Z,99514.90
2024-04-25T19:14:09.013Z,99517.10
2024-04-25T19:16:36.283Z,99514.60
2024-04-25T19:19:02.814Z,99513.48
2024-04-25T19:21:43.567Z,99512.83
2024-04-25T19:24:10.930Z,99517.99
2024-04-25T19:26:37.963Z,99520.02
2024-04-25T19:29:04.772Z,99520.80
2024-04-25T19:31:41.983Z,99523.38
2024-04-25T19:34:09.198Z,99524.98
2024-04-25T19:36:36.487Z,99525.82
2024-04-25T19:39:03.202Z,99529.63
2024-04-25T19:41:33.023Z,99529.98
2024-04-25T19:43:59.474Z,99528.34
2024-04-25T19:46:25.996Z,99531.22
2024-04-25T19:48:52.624Z,99526.62
2024-04-25T19:51:19.793Z,99525.89
2024-04-25T19:53:46.375Z,99529.14
2024-04-25T19:56:14.326Z,99527.64
2024-04-25T19:58:42.590Z,99527.45
2024-04-25T20:01:10.005Z,99529.38
2024-04-25T20:03:37.053Z,99527.30
2024-04-25T20:06:09.350Z,99530.11
2024-04-25T20:08:35.834Z,99528.48
2024-04-25T20:11:02.362Z,99531.20
2024-04-25T20:13:28.893Z,99534.11
2024-04-25T20:15:56.976Z,99535.35
2024-04-25T20:18:43.127Z,99535.30
2024-04-25T20:21:09.622Z,99536.13
2024-04-25T20:23:40.731Z,99533.09
2024-04-25T20:26:08.969Z,99533.75
2024-04-25T20:28:37.337Z,99535.25
2024-04-25T20:31:04.711Z,99536.94
2024-04-25T20:33:31.587Z,99537.13
2024-04-25T20:35:58.327Z,99541.17
2024-04-25T20:38:24.981Z,99546.42
2024-04-25T20:40:52.359Z,99550.63
2024-04-25T20:43:18.814Z,99550.25
2024-04-25T20:45:45.541Z,99549.80
2024-04-25T20:48:12.148Z,99555.02
2024-04-25T20:50:38.725Z,99555.60
2024-04-25T20:53:05.228Z,99553.36
2024-04-25T20:55:31.752Z,99555.59
2024-04-25T20:57:58.299Z,99560.90
2024-04-25T21:00:24.835Z,99562.45
2024-04-25T21:02:51.361Z,99566.80
2024-04-25T21:05:18.142Z,99571.50
2024-04-25T21:07:44.882Z,99570.77
2024-04-25T21:10:12.679Z,99568.75
2024-04-25T21:12:39.160Z,99569.34
2024-04-25T21:15:06.340Z,99569.96
2024-04-25T21:17:35.110Z,99571.69
2024-04-25T21:20:01.655Z,99572.05
2024-04-25T21:22:28.213Z,99571.92
2024-04-25T21:24:54.729Z,99577.20
2024-04-25T21:27:21.248Z,99580.27
2024-04-25T21:29:47.776Z,99583.71
2024-04-25T21:32:15.246Z,99580.95
2024-04-25T21:34:47.588Z,99579.78
2024-04-25T21:37:14.099Z,99582.16
2024-04-25T21:39:40.587Z,99582.14
2024-04-25T21:42:07.715Z,99583.55
2024-04-25T21:44:34.637Z,99583.86
2024-04-25T21:47:01.182Z,99585.03
2024-04-25T21:49:27.824Z,99582.52
2024-04-25T21:51:54.512Z,99580.67
2024-04-25T21:54:21.129Z,99578.23
2024-04-25T21:56:47.778Z,99579.92
2024-04-25T21:59:15.120Z,99582.54
2024-04-25T22:01:52.449Z,99584.64
2024-04-25T22:04:20.239Z,99588.61
2024-04-25T22:06:47.435Z,99590.90
2024-04-25T22:09:14.011Z,99596.23
2024-04-25T22:11:40.687Z,99595.30
2024-04-25T22:14:07.403Z,99596.08
2024-04-25T22:16:33.874Z,99594.52
2024-04-25T22:19:00.440Z,99599.94
2024-04-25T22:21:27.579Z,99598.91
2024-04-25T22:23:55.079Z,99592.88
2024-04-25T22:26:21.742Z,99590.27
2024-04-25T22:28:48.302Z,99590.99
2024-04-25T22:31:14.837Z,99594.38
2024-04-25T22:33:41.431Z,99598.86
2024-04-25T22:36:09.719Z,99600.95
2024-04-25T22:38:36.292Z,99601.59
2024-04-25T22:41:02.840Z,99608.48
2024-04-25T22:43:29.228Z,99609.44
2024-04-25T22:45:55.729Z,99611.80
2024-04-25T22:48:25.364Z,99612.19
2024-04-25T22:50:52.051Z,99612.20
2024-04-25T22:53:18.679Z,99610.73
2024-04-25T22:55:45.207Z,99610.90
2024-04-25T22:58:11.748Z,99609.35
2024-04-25T23:00:38.241Z,99609.55
2024-04-25T23:03:04.905Z,99612.29
2024-04-25T23:05:35.421Z,99609.92
2024-04-25T23:08:02.182Z,99610.71
2024-04-25T23:10:28.700Z,99612.04
2024-04-25T23:12:55.274Z,99607.97
2024-04-25T23:15:21.970Z,99609.05
2024-04-25T23:17:49.201Z,99611.77
2024-04-25T23:20:16.486Z,99610.29
2024-04-25T23:22:43.057Z,99611.27
2024-04-25T23:25:09.464Z,99614.78
2024-04-25T23:27:35.891Z,99615.10
2024-04-25T23:30:02.487Z,99615.92
2024-04-25T23:32:29.123Z,99622.81
2024-04-25T23:34:55.729Z,99625.98
2024-04-25T23:37:22.243Z,99627.64
2024-04-25T23:39:48.823Z,99623.14
2024-04-25T23:42:16.010Z,99626.59
2024-04-25T23:44:43.665Z,99624.70
2024-04-25T23:47:10.231Z,99622.83
2024-04-25T23:49:36.747Z,99621.98
2024-04-25T23:52:03.179Z,99621.44
2024-04-25T23:54:29.676Z,99622.43
2024-04-25T23:56:56.316Z,99623.61
2024-04-25T23:59:23.049Z,99625.52
